sensor_id;sensor_type;location;lat;lon;timestamp;pressure;altitude;pressure_sealevel;temperature;humidity
9277;BME280;4676;42.678;23.244;2023-01-19T00:00:17;92924.84;;;13.71;56.99
9277;BME280;4676;42.678;23.244;2023-01-19T00:02:44;92907.22;;;13.68;57.07
9277;BME280;4676;42.678;23.244;2023-01-19T00:05:13;92887.63;;;13.57;57.07
9277;BME280;4676;42.678;23.244;2023-01-19T00:07:39;92922.06;;;13.74;56.61
9277;BME280;4676;42.678;23.244;2023-01-19T00:10:07;92863.56;;;13.37;57.16
9277;BME280;4676;42.678;23.244;2023-01-19T00:12:34;92927.16;;;13.74;57.13
9277;BME280;4676;42.678;23.244;2023-01-19T00:15:03;92915.63;;;13.57;57.21
9277;BME280;4676;42.678;23.244;2023-01-19T00:17:30;92914.66;;;13.71;57.47
9277;BME280;4676;42.678;23.244;2023-01-19T00:19:57;92917.06;;;13.72;57.54
9277;BME280;4676;42.678;23.244;2023-01-19T00:22:24;92929.94;;;13.71;57.58
9277;BME280;4676;42.678;23.244;2023-01-19T00:24:50;92929.19;;;13.69;57.48
9277;BME280;4676;42.678;23.244;2023-01-19T00:27:17;92928.81;;;13.62;57.28
9277;BME280;4676;42.678;23.244;2023-01-19T00:29:44;92943.94;;;13.76;56.68
9277;BME280;4676;42.678;23.244;2023-01-19T00:32:12;92962.72;;;13.75;57.40
9277;BME280;4676;42.678;23.244;2023-01-19T00:34:38;92941.75;;;13.72;56.99
9277;BME280;4676;42.678;23.244;2023-01-19T00:37:13;92942.34;;;13.75;56.45
9277;BME280;4676;42.678;23.244;2023-01-19T00:39:40;92934.81;;;13.74;56.22
9277;BME280;4676;42.678;23.244;2023-01-19T00:42:07;92958.09;;;13.80;56.55
9277;BME280;4676;42.678;23.244;2023-01-19T00:44:51;92936.31;;;13.76;56.35
9277;BME280;4676;42.678;23.244;2023-01-19T00:47:19;92953.53;;;13.73;56.18
9277;BME280;4676;42.678;23.244;2023-01-19T00:49:46;92950.06;;;13.74;56.22
9277;BME280;4676;42.678;23.244;2023-01-19T00:52:13;92968.72;;;13.74;56.35
9277;BME280;4676;42.678;23.244;2023-01-19T00:54:39;92937.94;;;13.77;55.75
9277;BME280;4676;42.678;23.244;2023-01-19T00:57:06;92936.69;;;13.83;55.24
9277;BME280;4676;42.678;23.244;2023-01-19T00:59:33;92937.72;;;13.80;55.62
9277;BME280;4676;42.678;23.244;2023-01-19T01:01:59;92931.34;;;13.75;55.66
9277;BME280;4676;42.678;23.244;2023-01-19T01:04:28;92951.59;;;13.76;55.61
9277;BME280;4676;42.678;23.244;2023-01-19T01:06:54;92932.94;;;13.76;55.67
9277;BME280;4676;42.678;23.244;2023-01-19T01:09:21;92943.84;;;13.78;55.16
9277;BME280;4676;42.678;23.244;2023-01-19T01:11:48;92937.03;;;13.78;54.99
9277;BME280;4676;42.678;23.244;2023-01-19T01:14:15;92922.66;;;13.77;55.69
9277;BME280;4676;42.678;23.244;2023-01-19T01:16:42;92942.34;;;13.75;55.39
9277;BME280;4676;42.678;23.244;2023-01-19T01:19:09;92939.88;;;13.74;55.73
9277;BME280;4676;42.678;23.244;2023-01-19T01:21:37;92928.28;;;13.70;55.83
9277;BME280;4676;42.678;23.244;2023-01-19T01:24:04;92927.69;;;13.66;55.71
9277;BME280;4676;42.678;23.244;2023-01-19T01:26:31;92922.81;;;13.63;55.76
9277;BME280;4676;42.678;23.244;2023-01-19T01:28:58;92929.03;;;13.59;55.73
9277;BME280;4676;42.678;23.244;2023-01-19T01:31:25;92919.16;;;13.67;55.02
9277;BME280;4676;42.678;23.244;2023-01-19T01:33:51;92905.53;;;13.56;54.77
9277;BME280;4676;42.678;23.244;2023-01-19T01:36:18;92949.41;;;13.83;54.20
9277;BME280;4676;42.678;23.244;2023-01-19T01:38:46;92944.13;;;13.86;54.44
9277;BME280;4676;42.678;23.244;2023-01-19T01:41:13;92927.22;;;13.85;53.98
9277;BME280;4676;42.678;23.244;2023-01-19T01:43:45;92938.09;;;13.87;53.88
9277;BME280;4676;42.678;23.244;2023-01-19T01:46:13;92947.16;;;13.91;54.02
9277;BME280;4676;42.678;23.244;2023-01-19T01:48:44;92925.50;;;13.85;54.01
9277;BME280;4676;42.678;23.244;2023-01-19T01:51:14;92941.13;;;13.92;54.04
9277;BME280;4676;42.678;23.244;2023-01-19T01:54:03;92930.72;;;13.95;53.30
9277;BME280;4676;42.678;23.244;2023-01-19T01:56:35;92930.94;;;13.92;53.38
9277;BME280;4676;42.678;23.244;2023-01-19T01:59:05;92923.69;;;13.98;53.01
9277;BME280;4676;42.678;23.244;2023-01-19T02:01:33;92929.69;;;13.97;53.49
9277;BME280;4676;42.678;23.244;2023-01-19T02:04:18;92944.28;;;13.95;53.23
9277;BME280;4676;42.678;23.244;2023-01-19T02:06:46;92935.13;;;13.93;53.70
9277;BME280;4676;42.678;23.244;2023-01-19T02:09:33;92919.81;;;13.82;53.51
9277;BME280;4676;42.678;23.244;2023-01-19T02:12:19;92903.25;;;13.87;53.32
9277;BME280;4676;42.678;23.244;2023-01-19T02:15:04;92927.00;;;13.88;53.44
9277;BME280;4676;42.678;23.244;2023-01-19T02:17:31;92921.09;;;13.87;53.28
9277;BME280;4676;42.678;23.244;2023-01-19T02:19:58;92916.91;;;13.86;53.70
9277;BME280;4676;42.678;23.244;2023-01-19T02:22:30;92925.81;;;13.81;53.44
9277;BME280;4676;42.678;23.244;2023-01-19T02:25:02;92904.91;;;13.88;53.28
9277;BME280;4676;42.678;23.244;2023-01-19T02:27:29;92928.72;;;13.87;53.15
9277;BME280;4676;42.678;23.244;2023-01-19T02:29:56;92913.56;;;13.86;53.61
9277;BME280;4676;42.678;23.244;2023-01-19T02:32:23;92933.34;;;13.82;53.25
9277;BME280;4676;42.678;23.244;2023-01-19T02:34:50;92898.56;;;13.70;52.94
9277;BME280;4676;42.678;23.244;2023-01-19T02:37:17;92939.72;;;13.88;53.19
9277;BME280;4676;42.678;23.244;2023-01-19T02:39:49;92932.31;;;13.85;53.39
9277;BME280;4676;42.678;23.244;2023-01-19T02:42:21;92919.56;;;13.85;53.04
9277;BME280;4676;42.678;23.244;2023-01-19T02:44:52;92943.53;;;13.82;52.91
9277;BME280;4676;42.678;23.244;2023-01-19T02:47:20;92935.91;;;13.82;52.76
9277;BME280;4676;42.678;23.244;2023-01-19T02:49:54;92945.88;;;13.85;52.76
9277;BME280;4676;42.678;23.244;2023-01-19T02:52:20;92940.53;;;13.88;52.65
9277;BME280;4676;42.678;23.244;2023-01-19T02:55:00;92937.28;;;13.86;52.58
9277;BME280;4676;42.678;23.244;2023-01-19T02:57:44;92958.06;;;13.93;52.34
9277;BME280;4676;42.678;23.244;2023-01-19T03:00:29;92939.50;;;13.91;52.30
9277;BME280;4676;42.678;23.244;2023-01-19T03:03:12;92932.91;;;13.88;51.96
9277;BME280;4676;42.678;23.244;2023-01-19T03:05:54;92948.28;;;13.87;52.45
9277;BME280;4676;42.678;23.244;2023-01-19T03:08:32;92937.41;;;13.85;52.33
9277;BME280;4676;42.678;23.244;2023-01-19T03:11:03;92933.00;;;13.87;51.86
9277;BME280;4676;42.678;23.244;2023-01-19T03:13:40;92934.72;;;13.86;51.95
9277;BME280;4676;42.678;23.244;2023-01-19T03:16:13;92927.53;;;13.80;51.58
9277;BME280;4676;42.678;23.244;2023-01-19T03:18:44;92952.47;;;13.88;52.14
9277;BME280;4676;42.678;23.244;2023-01-19T03:21:13;92945.72;;;13.87;52.20
9277;BME280;4676;42.678;23.244;2023-01-19T03:23:44;92942.59;;;13.83;52.13
9277;BME280;4676;42.678;23.244;2023-01-19T03:26:15;92953.00;;;13.80;51.95
9277;BME280;4676;42.678;23.244;2023-01-19T03:28:46;92963.47;;;13.88;51.19
9277;BME280;4676;42.678;23.244;2023-01-19T03:31:21;92912.47;;;13.77;51.16
9277;BME280;4676;42.678;23.244;2023-01-19T03:33:52;92943.19;;;13.87;51.20
9277;BME280;4676;42.678;23.244;2023-01-19T03:36:24;92929.38;;;13.78;51.81
9277;BME280;4676;42.678;23.244;2023-01-19T03:38:54;92901.97;;;13.82;52.26
9277;BME280;4676;42.678;23.244;2023-01-19T03:41:23;92938.44;;;13.82;51.32
9277;BME280;4676;42.678;23.244;2023-01-19T03:43:54;92940.09;;;13.94;51.14
9277;BME280;4676;42.678;23.244;2023-01-19T03:46:22;92919.13;;;13.91;51.48
9277;BME280;4676;42.678;23.244;2023-01-19T03:48:50;92945.34;;;13.80;51.78
9277;BME280;4676;42.678;23.244;2023-01-19T03:51:18;92943.03;;;13.77;51.54
9277;BME280;4676;42.678;23.244;2023-01-19T03:53:44;92944.66;;;13.78;51.59
9277;BME280;4676;42.678;23.244;2023-01-19T03:56:17;92966.44;;;13.82;51.24
9277;BME280;4676;42.678;23.244;2023-01-19T03:58:45;92931.41;;;13.86;51.10
9277;BME280;4676;42.678;23.244;2023-01-19T04:01:13;92942.97;;;13.90;51.01
9277;BME280;4676;42.678;23.244;2023-01-19T04:03:41;92937.69;;;13.93;50.65
9277;BME280;4676;42.678;23.244;2023-01-19T04:06:08;92964.38;;;13.87;51.10
9277;BME280;4676;42.678;23.244;2023-01-19T04:08:35;92942.81;;;13.80;50.54
9277;BME280;4676;42.678;23.244;2023-01-19T04:11:02;92941.47;;;13.87;50.26
9277;BME280;4676;42.678;23.244;2023-01-19T04:13:29;92949.91;;;13.88;50.46
9277;BME280;4676;42.678;23.244;2023-01-19T04:15:58;92927.22;;;13.85;50.13
9277;BME280;4676;42.678;23.244;2023-01-19T04:18:26;92960.00;;;13.89;49.94
9277;BME280;4676;42.678;23.244;2023-01-19T04:20:53;92922.72;;;13.88;49.63
9277;BME280;4676;42.678;23.244;2023-01-19T04:23:20;92889.06;;;13.72;49.85
9277;BME280;4676;42.678;23.244;2023-01-19T04:25:47;92934.41;;;13.91;49.66
9277;BME280;4676;42.678;23.244;2023-01-19T04:28:13;92918.22;;;13.92;50.04
9277;BME280;4676;42.678;23.244;2023-01-19T04:30:41;92900.94;;;13.84;49.42
9277;BME280;4676;42.678;23.244;2023-01-19T04:33:07;92920.00;;;14.02;49.21
9277;BME280;4676;42.678;23.244;2023-01-19T04:35:35;92913.28;;;14.01;48.82
9277;BME280;4676;42.678;23.244;2023-01-19T04:38:02;92922.19;;;13.96;49.12
9277;BME280;4676;42.678;23.244;2023-01-19T04:40:29;92925.31;;;13.99;49.42
9277;BME280;4676;42.678;23.244;2023-01-19T04:42:56;92943.50;;;14.06;48.65
9277;BME280;4676;42.678;23.244;2023-01-19T04:45:23;92925.38;;;14.11;48.06
9277;BME280;4676;42.678;23.244;2023-01-19T04:47:49;92954.31;;;14.10;48.14
9277;BME280;4676;42.678;23.244;2023-01-19T04:50:16;92908.91;;;14.15;48.26
9277;BME280;4676;42.678;23.244;2023-01-19T04:52:44;92923.19;;;14.17;47.78
9277;BME280;4676;42.678;23.244;2023-01-19T04:55:11;92930.59;;;14.20;47.80
9277;BME280;4676;42.678;23.244;2023-01-19T04:57:38;92929.78;;;14.20;47.93
9277;BME280;4676;42.678;23.244;2023-01-19T05:00:06;92934.44;;;14.26;47.65
9277;BME280;4676;42.678;23.244;2023-01-19T05:02:34;92933.84;;;14.22;47.41
9277;BME280;4676;42.678;23.244;2023-01-19T05:05:01;92943.47;;;14.30;47.58
9277;BME280;4676;42.678;23.244;2023-01-19T05:07:28;92929.50;;;14.12;47.66
9277;BME280;4676;42.678;23.244;2023-01-19T05:09:56;92972.44;;;14.29;47.53
9277;BME280;4676;42.678;23.244;2023-01-19T05:12:23;92968.16;;;14.29;47.93
9277;BME280;4676;42.678;23.244;2023-01-19T05:14:50;92967.47;;;14.27;48.08
9277;BME280;4676;42.678;23.244;2023-01-19T05:17:16;92974.72;;;14.21;47.77
9277;BME280;4676;42.678;23.244;2023-01-19T05:19:43;92975.06;;;14.16;48.27
9277;BME280;4676;42.678;23.244;2023-01-19T05:22:10;92979.66;;;14.11;48.69
9277;BME280;4676;42.678;23.244;2023-01-19T05:24:37;92936.59;;;13.84;48.63
9277;BME280;4676;42.678;23.244;2023-01-19T05:27:05;92984.75;;;14.11;48.42
9277;BME280;4676;42.678;23.244;2023-01-19T05:29:32;92969.59;;;14.10;48.44
9277;BME280;4676;42.678;23.244;2023-01-19T05:31:59;92990.19;;;14.07;48.65
9277;BME280;4676;42.678;23.244;2023-01-19T05:34:26;92937.50;;;14.07;48.45
9277;BME280;4676;42.678;23.244;2023-01-19T05:36:52;92952.88;;;14.06;48.70
9277;BME280;4676;42.678;23.244;2023-01-19T05:39:19;92940.06;;;14.07;48.09
9277;BME280;4676;42.678;23.244;2023-01-19T05:41:46;92960.31;;;14.09;47.86
9277;BME280;4676;42.678;23.244;2023-01-19T05:44:14;92977.44;;;14.07;48.06
9277;BME280;4676;42.678;23.244;2023-01-19T05:46:41;92974.56;;;14.11;47.82
9277;BME280;4676;42.678;23.244;2023-01-19T05:49:07;93010.13;;;14.13;47.81
9277;BME280;4676;42.678;23.244;2023-01-19T05:51:34;92991.59;;;14.11;47.83
9277;BME280;4676;42.678;23.244;2023-01-19T05:54:03;92985.78;;;14.09;48.21
9277;BME280;4676;42.678;23.244;2023-01-19T05:56:30;92941.66;;;14.08;47.70
9277;BME280;4676;42.678;23.244;2023-01-19T05:58:57;92979.88;;;14.08;48.25
9277;BME280;4676;42.678;23.244;2023-01-19T06:01:25;92969.03;;;13.93;47.62
9277;BME280;4676;42.678;23.244;2023-01-19T06:03:52;92980.00;;;14.07;48.24
9277;BME280;4676;42.678;23.244;2023-01-19T06:06:19;92983.69;;;14.02;47.86
9277;BME280;4676;42.678;23.244;2023-01-19T06:08:45;92976.84;;;14.03;48.52
9277;BME280;4676;42.678;23.244;2023-01-19T06:11:12;92984.81;;;13.98;48.72
9277;BME280;4676;42.678;23.244;2023-01-19T06:13:39;92989.81;;;14.00;48.39
9277;BME280;4676;42.678;23.244;2023-01-19T06:16:06;92987.97;;;14.02;48.57
9277;BME280;4676;42.678;23.244;2023-01-19T06:18:34;92983.91;;;13.99;48.91
9277;BME280;4676;42.678;23.244;2023-01-19T06:21:05;92979.28;;;14.05;48.52
9277;BME280;4676;42.678;23.244;2023-01-19T06:23:33;92990.19;;;14.07;48.29
9277;BME280;4676;42.678;23.244;2023-01-19T06:26:00;92987.13;;;14.01;48.56
9277;BME280;4676;42.678;23.244;2023-01-19T06:28:27;92965.09;;;14.13;48.73
9277;BME280;4676;42.678;23.244;2023-01-19T06:30:54;92979.66;;;14.11;48.46
9277;BME280;4676;42.678;23.244;2023-01-19T06:33:22;92989.66;;;14.14;48.07
9277;BME280;4676;42.678;23.244;2023-01-19T06:35:51;92976.09;;;14.14;48.64
9277;BME280;4676;42.678;23.244;2023-01-19T06:38:18;92984.97;;;14.08;49.07
9277;BME280;4676;42.678;23.244;2023-01-19T06:40:45;92995.75;;;14.12;48.84
9277;BME280;4676;42.678;23.244;2023-01-19T06:43:12;93032.56;;;14.08;50.14
9277;BME280;4676;42.678;23.244;2023-01-19T06:45:38;93032.19;;;14.01;50.40
9277;BME280;4676;42.678;23.244;2023-01-19T06:48:05;93039.88;;;13.88;50.88
9277;BME280;4676;42.678;23.244;2023-01-19T06:50:32;93038.75;;;13.92;51.04
9277;BME280;4676;42.678;23.244;2023-01-19T06:53:00;93031.19;;;13.91;51.08
9277;BME280;4676;42.678;23.244;2023-01-19T06:55:26;93042.91;;;13.93;50.95
9277;BME280;4676;42.678;23.244;2023-01-19T06:57:56;93045.25;;;13.96;50.20
9277;BME280;4676;42.678;23.244;2023-01-19T07:00:23;93044.81;;;14.02;49.87
9277;BME280;4676;42.678;23.244;2023-01-19T07:02:51;93059.56;;;14.10;49.77
9277;BME280;4676;42.678;23.244;2023-01-19T07:05:17;93056.22;;;14.10;50.44
9277;BME280;4676;42.678;23.244;2023-01-19T07:07:50;93052.84;;;14.09;50.89
9277;BME280;4676;42.678;23.244;2023-01-19T07:10:18;93051.34;;;14.07;50.52
9277;BME280;4676;42.678;23.244;2023-01-19T07:12:45;93030.50;;;14.13;49.85
9277;BME280;4676;42.678;23.244;2023-01-19T07:15:12;93026.00;;;14.16;49.28
9277;BME280;4676;42.678;23.244;2023-01-19T07:17:39;93024.06;;;14.20;49.33
9277;BME280;4676;42.678;23.244;2023-01-19T07:20:08;93031.38;;;14.24;48.57
9277;BME280;4676;42.678;23.244;2023-01-19T07:22:35;93027.69;;;14.28;48.45
9277;BME280;4676;42.678;23.244;2023-01-19T07:25:02;93060.44;;;14.34;48.44
9277;BME280;4676;42.678;23.244;2023-01-19T07:27:30;93050.59;;;14.41;48.06
9277;BME280;4676;42.678;23.244;2023-01-19T07:29:57;93045.50;;;14.41;48.50
9277;BME280;4676;42.678;23.244;2023-01-19T07:32:25;93054.06;;;14.40;48.78
9277;BME280;4676;42.678;23.244;2023-01-19T07:34:52;93057.09;;;14.45;49.25
9277;BME280;4676;42.678;23.244;2023-01-19T07:37:19;93053.84;;;14.43;49.45
9277;BME280;4676;42.678;23.244;2023-01-19T07:39:46;93042.50;;;14.47;48.88
9277;BME280;4676;42.678;23.244;2023-01-19T07:42:12;93056.34;;;14.56;47.58
9277;BME280;4676;42.678;23.244;2023-01-19T07:44:41;93034.91;;;14.58;47.23
9277;BME280;4676;42.678;23.244;2023-01-19T07:47:07;93055.03;;;14.74;47.42
9277;BME280;4676;42.678;23.244;2023-01-19T07:49:36;93029.31;;;14.53;46.82
9277;BME280;4676;42.678;23.244;2023-01-19T07:52:04;93057.00;;;14.81;46.72
9277;BME280;4676;42.678;23.244;2023-01-19T07:54:30;93051.78;;;14.83;46.88
9277;BME280;4676;42.678;23.244;2023-01-19T07:56:57;93081.72;;;14.92;46.34
9277;BME280;4676;42.678;23.244;2023-01-19T07:59:25;93054.38;;;14.94;46.32
9277;BME280;4676;42.678;23.244;2023-01-19T08:01:53;93053.22;;;14.98;46.10
9277;BME280;4676;42.678;23.244;2023-01-19T08:04:19;93076.88;;;15.00;46.11
9277;BME280;4676;42.678;23.244;2023-01-19T08:06:46;93073.19;;;15.04;46.50
9277;BME280;4676;42.678;23.244;2023-01-19T08:09:13;93075.03;;;15.13;46.22
9277;BME280;4676;42.678;23.244;2023-01-19T08:11:40;93071.34;;;15.17;45.84
9277;BME280;4676;42.678;23.244;2023-01-19T08:14:06;93078.69;;;15.22;45.44
9277;BME280;4676;42.678;23.244;2023-01-19T08:16:33;93071.38;;;15.28;44.53
9277;BME280;4676;42.678;23.244;2023-01-19T08:19:01;93072.78;;;15.43;44.23
9277;BME280;4676;42.678;23.244;2023-01-19T08:21:28;93087.78;;;15.48;43.94
9277;BME280;4676;42.678;23.244;2023-01-19T08:23:57;93095.09;;;15.53;43.61
9277;BME280;4676;42.678;23.244;2023-01-19T08:26:26;93036.78;;;15.24;42.79
9277;BME280;4676;42.678;23.244;2023-01-19T08:28:54;93099.75;;;15.59;43.59
9277;BME280;4676;42.678;23.244;2023-01-19T08:31:22;93072.13;;;15.53;43.24
9277;BME280;4676;42.678;23.244;2023-01-19T08:33:49;93066.44;;;15.60;43.76
9277;BME280;4676;42.678;23.244;2023-01-19T08:36:17;93086.63;;;15.74;43.66
9277;BME280;4676;42.678;23.244;2023-01-19T08:38:44;93093.16;;;15.78;43.76
9277;BME280;4676;42.678;23.244;2023-01-19T08:41:11;93086.41;;;15.77;42.86
9277;BME280;4676;42.678;23.244;2023-01-19T08:43:38;93089.19;;;15.85;43.11
9277;BME280;4676;42.678;23.244;2023-01-19T08:46:05;93110.91;;;15.91;43.53
9277;BME280;4676;42.678;23.244;2023-01-19T08:48:32;93122.50;;;15.95;43.51
9277;BME280;4676;42.678;23.244;2023-01-19T08:50:58;93111.03;;;16.01;42.97
9277;BME280;4676;42.678;23.244;2023-01-19T08:53:27;93109.41;;;15.99;42.91
9277;BME280;4676;42.678;23.244;2023-01-19T08:55:54;93114.94;;;16.05;42.67
9277;BME280;4676;42.678;23.244;2023-01-19T08:58:24;93112.78;;;16.00;43.21
9277;BME280;4676;42.678;23.244;2023-01-19T09:00:51;93135.53;;;16.14;43.30
9277;BME280;4676;42.678;23.244;2023-01-19T09:03:18;93129.84;;;16.22;43.40
9277;BME280;4676;42.678;23.244;2023-01-19T09:05:47;93122.75;;;16.25;42.38
9277;BME280;4676;42.678;23.244;2023-01-19T09:08:14;93106.94;;;16.20;43.32
9277;BME280;4676;42.678;23.244;2023-01-19T09:10:45;93106.25;;;16.18;42.84
9277;BME280;4676;42.678;23.244;2023-01-19T09:13:13;93132.13;;;16.36;42.34
9277;BME280;4676;42.678;23.244;2023-01-19T09:15:40;93150.13;;;16.45;42.18
9277;BME280;4676;42.678;23.244;2023-01-19T09:18:10;93137.56;;;16.54;42.20
9277;BME280;4676;42.678;23.244;2023-01-19T09:20:38;93142.22;;;16.60;42.58
9277;BME280;4676;42.678;23.244;2023-01-19T09:23:07;93122.22;;;16.54;41.96
9277;BME280;4676;42.678;23.244;2023-01-19T09:25:35;93125.31;;;16.68;42.58
9277;BME280;4676;42.678;23.244;2023-01-19T09:28:04;93140.91;;;16.76;42.57
9277;BME280;4676;42.678;23.244;2023-01-19T09:30:32;93109.97;;;16.68;40.83
9277;BME280;4676;42.678;23.244;2023-01-19T09:33:01;93116.22;;;16.75;41.76
9277;BME280;4676;42.678;23.244;2023-01-19T09:35:30;93097.03;;;16.81;41.41
9277;BME280;4676;42.678;23.244;2023-01-19T09:37:57;93104.84;;;17.00;41.49
9277;BME280;4676;42.678;23.244;2023-01-19T09:42:55;93124.06;;;17.26;41.11
9277;BME280;4676;42.678;23.244;2023-01-19T09:45:32;93107.38;;;17.32;41.36
9277;BME280;4676;42.678;23.244;2023-01-19T09:48:01;93088.72;;;17.20;40.57
9277;BME280;4676;42.678;23.244;2023-01-19T09:50:33;93088.00;;;17.39;41.31
9277;BME280;4676;42.678;23.244;2023-01-19T09:53:03;93096.75;;;17.36;40.73
9277;BME280;4676;42.678;23.244;2023-01-19T09:55:31;93137.75;;;17.36;40.80
9277;BME280;4676;42.678;23.244;2023-01-19T09:57:58;93090.25;;;17.32;40.79
9277;BME280;4676;42.678;23.244;2023-01-19T10:00:27;93089.75;;;17.38;40.98
9277;BME280;4676;42.678;23.244;2023-01-19T10:02:57;93067.03;;;17.45;40.50
9277;BME280;4676;42.678;23.244;2023-01-19T10:05:29;93077.75;;;17.39;39.15
9277;BME280;4676;42.678;23.244;2023-01-19T10:08:09;93086.06;;;17.52;41.00
9277;BME280;4676;42.678;23.244;2023-01-19T10:10:46;93071.16;;;17.57;41.60
9277;BME280;4676;42.678;23.244;2023-01-19T10:13:30;93062.00;;;17.43;40.63
9277;BME280;4676;42.678;23.244;2023-01-19T10:16:20;93085.00;;;17.55;41.43
9277;BME280;4676;42.678;23.244;2023-01-19T10:18:53;93080.63;;;17.45;40.84
9277;BME280;4676;42.678;23.244;2023-01-19T10:21:24;93062.84;;;17.44;40.12
9277;BME280;4676;42.678;23.244;2023-01-19T10:23:55;93079.38;;;17.40;40.42
9277;BME280;4676;42.678;23.244;2023-01-19T10:26:24;93060.91;;;17.36;40.51
9277;BME280;4676;42.678;23.244;2023-01-19T10:28:54;93068.81;;;17.54;41.55
9277;BME280;4676;42.678;23.244;2023-01-19T10:31:24;93077.38;;;17.64;40.62
9277;BME280;4676;42.678;23.244;2023-01-19T10:33:51;93066.47;;;17.62;40.83
9277;BME280;4676;42.678;23.244;2023-01-19T10:36:20;93068.06;;;17.63;40.28
9277;BME280;4676;42.678;23.244;2023-01-19T10:38:50;93052.56;;;17.65;40.44
9277;BME280;4676;42.678;23.244;2023-01-19T10:41:18;93089.91;;;17.58;39.65
9277;BME280;4676;42.678;23.244;2023-01-19T10:43:58;93062.56;;;17.47;39.89
9277;BME280;4676;42.678;23.244;2023-01-19T10:46:32;93063.13;;;17.51;40.30
9277;BME280;4676;42.678;23.244;2023-01-19T10:49:00;93045.88;;;17.53;39.64
9277;BME280;4676;42.678;23.244;2023-01-19T10:51:27;93066.69;;;17.59;40.67
9277;BME280;4676;42.678;23.244;2023-01-19T10:53:59;93047.81;;;17.60;39.79
9277;BME280;4676;42.678;23.244;2023-01-19T10:56:30;93066.06;;;17.46;39.86
9277;BME280;4676;42.678;23.244;2023-01-19T10:58:59;93063.03;;;17.11;40.18
9277;BME280;4676;42.678;23.244;2023-01-19T11:01:28;93069.06;;;16.89;40.66
9277;BME280;4676;42.678;23.244;2023-01-19T11:03:56;93055.41;;;16.79;41.07
9277;BME280;4676;42.678;23.244;2023-01-19T11:06:30;93052.59;;;16.82;41.27
9277;BME280;4676;42.678;23.244;2023-01-19T11:09:16;93051.59;;;16.73;41.22
9277;BME280;4676;42.678;23.244;2023-01-19T11:11:46;92992.56;;;16.54;41.22
9277;BME280;4676;42.678;23.244;2023-01-19T11:14:17;93022.06;;;16.69;41.59
9277;BME280;4676;42.678;23.244;2023-01-19T11:16:49;93031.06;;;16.64;41.82
9277;BME280;4676;42.678;23.244;2023-01-19T11:19:24;93022.94;;;16.79;41.64
9277;BME280;4676;42.678;23.244;2023-01-19T11:21:51;93037.88;;;16.95;41.08
9277;BME280;4676;42.678;23.244;2023-01-19T11:24:19;93021.25;;;17.10;41.22
9277;BME280;4676;42.678;23.244;2023-01-19T11:26:47;93028.88;;;17.21;41.00
9277;BME280;4676;42.678;23.244;2023-01-19T11:29:17;93015.03;;;17.24;40.46
9277;BME280;4676;42.678;23.244;2023-01-19T11:31:47;93044.34;;;17.40;40.66
9277;BME280;4676;42.678;23.244;2023-01-19T11:34:23;93032.63;;;17.38;39.87
9277;BME280;4676;42.678;23.244;2023-01-19T11:36:56;93014.88;;;17.25;40.15
9277;BME280;4676;42.678;23.244;2023-01-19T11:39:25;93036.06;;;17.27;40.52
9277;BME280;4676;42.678;23.244;2023-01-19T11:41:54;93030.75;;;17.49;41.18
9277;BME280;4676;42.678;23.244;2023-01-19T11:44:23;93017.56;;;17.54;39.50
9277;BME280;4676;42.678;23.244;2023-01-19T11:46:55;93013.81;;;17.28;39.59
9277;BME280;4676;42.678;23.244;2023-01-19T11:49:28;93015.66;;;17.16;40.10
9277;BME280;4676;42.678;23.244;2023-01-19T11:52:03;93008.16;;;17.04;40.26
9277;BME280;4676;42.678;23.244;2023-01-19T11:54:34;93024.38;;;17.14;40.36
9277;BME280;4676;42.678;23.244;2023-01-19T11:57:11;93004.63;;;17.25;40.20
9277;BME280;4676;42.678;23.244;2023-01-19T11:59:38;93009.78;;;17.35;40.59
9277;BME280;4676;42.678;23.244;2023-01-19T12:02:15;92992.19;;;17.41;39.55
9277;BME280;4676;42.678;23.244;2023-01-19T12:04:44;93000.91;;;17.39;38.81
9277;BME280;4676;42.678;23.244;2023-01-19T12:07:13;92987.41;;;17.27;39.56
9277;BME280;4676;42.678;23.244;2023-01-19T12:09:47;92999.94;;;17.30;39.76
9277;BME280;4676;42.678;23.244;2023-01-19T12:12:23;92989.41;;;17.24;39.31
9277;BME280;4676;42.678;23.244;2023-01-19T12:14:55;92989.41;;;17.24;39.91
9277;BME280;4676;42.678;23.244;2023-01-19T12:17:26;92999.03;;;17.11;39.87
9277;BME280;4676;42.678;23.244;2023-01-19T12:19:58;92958.84;;;17.02;39.22
9277;BME280;4676;42.678;23.244;2023-01-19T12:22:28;92981.63;;;17.05;39.35
9277;BME280;4676;42.678;23.244;2023-01-19T12:25:00;92975.94;;;17.01;39.91
9277;BME280;4676;42.678;23.244;2023-01-19T12:27:36;92992.06;;;16.92;39.51
9277;BME280;4676;42.678;23.244;2023-01-19T12:30:09;92983.00;;;16.88;38.85
9277;BME280;4676;42.678;23.244;2023-01-19T12:32:43;92975.59;;;16.85;39.61
9277;BME280;4676;42.678;23.244;2023-01-19T12:38:23;92982.13;;;16.98;40.10
9277;BME280;4676;42.678;23.244;2023-01-19T12:41:16;92984.19;;;17.05;39.68
9277;BME280;4676;42.678;23.244;2023-01-19T12:43:44;92968.94;;;17.03;38.97
9277;BME280;4676;42.678;23.244;2023-01-19T12:46:25;93017.38;;;17.16;39.60
9277;BME280;4676;42.678;23.244;2023-01-19T12:48:54;92973.44;;;17.11;38.52
9277;BME280;4676;42.678;23.244;2023-01-19T12:51:29;93003.41;;;17.20;39.64
9277;BME280;4676;42.678;23.244;2023-01-19T12:53:57;93015.13;;;17.22;39.57
9277;BME280;4676;42.678;23.244;2023-01-19T12:56:29;92995.78;;;17.09;39.21
9277;BME280;4676;42.678;23.244;2023-01-19T12:58:56;92983.19;;;16.96;39.12
9277;BME280;4676;42.678;23.244;2023-01-19T13:01:24;92997.00;;;16.84;40.27
9277;BME280;4676;42.678;23.244;2023-01-19T13:04:00;92991.50;;;16.88;40.24
9277;BME280;4676;42.678;23.244;2023-01-19T13:09:30;92995.16;;;16.75;41.09
9277;BME280;4676;42.678;23.244;2023-01-19T13:12:21;92999.72;;;16.71;40.48
9277;BME280;4676;42.678;23.244;2023-01-19T13:14:48;93000.09;;;16.67;40.22
9277;BME280;4676;42.678;23.244;2023-01-19T13:17:24;92997.56;;;16.67;40.38
9277;BME280;4676;42.678;23.244;2023-01-19T13:20:16;93001.28;;;16.63;39.87
9277;BME280;4676;42.678;23.244;2023-01-19T13:25:58;92984.56;;;16.59;40.17
9277;BME280;4676;42.678;23.244;2023-01-19T13:28:31;92962.53;;;16.46;40.21
9277;BME280;4676;42.678;23.244;2023-01-19T13:31:01;92982.94;;;16.58;40.42
9277;BME280;4676;42.678;23.244;2023-01-19T13:33:35;92969.53;;;16.54;40.89